48FD weather

Delray Medical Center Emergency Helistop
Delray Beach, Florida, United States

Public forecast

Using degrees Fahrenheit for public forecast. Weather courtesy of forecast.io.

Closest aviation weather report (METAR) to Delray Medical Center Emergency Helistop

Report is more than 2 hours old.

Closest report is Boca Raton Airport, 3.6 nm (6.7 km) SSE. Retrieved 2019/10/20 02:47 UTC (6 hours ago):

KBCT 200247Z 20006G12KT 10SM CLR 28/25 A2991

Closest aviation forecast (TAF) to Delray Medical Center Emergency Helistop

Closest forecast is Fort Lauderdale Executive Airport, 14.5 nm (26.9 km) S. Retrieved 2019/10/20 06:42 UTC (2 hours ago):

TAF KFXE 200540Z 2006/2106 17010KT P6SM VCSH SCT020 BKN090 FM200900 21008KT P6SM VCSH FEW020 SCT110 FM201800 19010KT P6SM VCTS SCT035CB BKN120 FM210100 VRB03KT P6SM FEW050 SCT250